sensor_id;sensor_type;location;lat;lon;timestamp;P1;durP1;ratioP1;P2;durP2;ratioP2
58468;SDS011;44257;44.804;10.220;2023-03-01T00:01:08;17.60;;;9.52;;
58468;SDS011;44257;44.804;10.220;2023-03-01T00:03:38;21.63;;;11.23;;
58468;SDS011;44257;44.804;10.220;2023-03-01T00:06:04;21.35;;;10.68;;
58468;SDS011;44257;44.804;10.220;2023-03-01T00:08:30;20.45;;;10.95;;
58468;SDS011;44257;44.804;10.220;2023-03-01T00:11:04;24.08;;;10.30;;
58468;SDS011;44257;44.804;10.220;2023-03-01T00:13:42;19.67;;;10.13;;
58468;SDS011;44257;44.804;10.220;2023-03-01T00:16:11;16.27;;;8.75;;
58468;SDS011;44257;44.804;10.220;2023-03-01T00:18:42;18.33;;;9.30;;
58468;SDS011;44257;44.804;10.220;2023-03-01T00:21:08;19.20;;;10.20;;
58468;SDS011;44257;44.804;10.220;2023-03-01T00:23:34;21.35;;;10.25;;
58468;SDS011;44257;44.804;10.220;2023-03-01T00:26:01;21.23;;;10.02;;
58468;SDS011;44257;44.804;10.220;2023-03-01T00:28:31;19.75;;;10.57;;
58468;SDS011;44257;44.804;10.220;2023-03-01T00:31:02;20.80;;;10.60;;
58468;SDS011;44257;44.804;10.220;2023-03-01T00:33:29;20.27;;;9.40;;
58468;SDS011;44257;44.804;10.220;2023-03-01T00:35:57;21.63;;;10.55;;
58468;SDS011;44257;44.804;10.220;2023-03-01T00:38:23;25.90;;;10.40;;
58468;SDS011;44257;44.804;10.220;2023-03-01T00:40:49;22.13;;;10.73;;
58468;SDS011;44257;44.804;10.220;2023-03-01T00:43:15;16.52;;;9.02;;
58468;SDS011;44257;44.804;10.220;2023-03-01T00:45:40;19.42;;;10.07;;
58468;SDS011;44257;44.804;10.220;2023-03-01T00:48:06;20.70;;;10.20;;
58468;SDS011;44257;44.804;10.220;2023-03-01T00:50:32;20.98;;;9.85;;
58468;SDS011;44257;44.804;10.220;2023-03-01T00:52:58;20.40;;;10.50;;
58468;SDS011;44257;44.804;10.220;2023-03-01T00:55:24;19.20;;;10.25;;
58468;SDS011;44257;44.804;10.220;2023-03-01T00:57:50;22.33;;;11.18;;
58468;SDS011;44257;44.804;10.220;2023-03-01T01:00:16;22.85;;;10.45;;
58468;SDS011;44257;44.804;10.220;2023-03-01T01:02:43;21.17;;;10.68;;
58468;SDS011;44257;44.804;10.220;2023-03-01T01:05:09;26.02;;;9.25;;
58468;SDS011;44257;44.804;10.220;2023-03-01T01:07:35;19.23;;;10.50;;
58468;SDS011;44257;44.804;10.220;2023-03-01T01:10:01;16.90;;;9.27;;
58468;SDS011;44257;44.804;10.220;2023-03-01T01:12:26;18.92;;;9.60;;
58468;SDS011;44257;44.804;10.220;2023-03-01T01:14:52;17.75;;;8.63;;
58468;SDS011;44257;44.804;10.220;2023-03-01T01:17:18;21.30;;;8.88;;
58468;SDS011;44257;44.804;10.220;2023-03-01T01:19:44;20.23;;;8.90;;
58468;SDS011;44257;44.804;10.220;2023-03-01T01:22:10;16.13;;;7.88;;
58468;SDS011;44257;44.804;10.220;2023-03-01T01:24:35;13.18;;;7.50;;
58468;SDS011;44257;44.804;10.220;2023-03-01T01:27:01;19.52;;;8.25;;
58468;SDS011;44257;44.804;10.220;2023-03-01T01:29:27;17.58;;;7.45;;
58468;SDS011;44257;44.804;10.220;2023-03-01T01:31:53;17.45;;;7.28;;
58468;SDS011;44257;44.804;10.220;2023-03-01T01:34:20;16.13;;;8.32;;
58468;SDS011;44257;44.804;10.220;2023-03-01T01:36:52;14.02;;;6.65;;
58468;SDS011;44257;44.804;10.220;2023-03-01T01:39:19;17.50;;;7.90;;
58468;SDS011;44257;44.804;10.220;2023-03-01T01:41:46;16.08;;;6.93;;
58468;SDS011;44257;44.804;10.220;2023-03-01T01:44:16;15.75;;;6.75;;
58468;SDS011;44257;44.804;10.220;2023-03-01T01:47:12;14.07;;;6.82;;
58468;SDS011;44257;44.804;10.220;2023-03-01T01:49:48;14.98;;;6.68;;
58468;SDS011;44257;44.804;10.220;2023-03-01T01:57:35;12.45;;;6.57;;
58468;SDS011;44257;44.804;10.220;2023-03-01T02:00:05;13.35;;;6.90;;
58468;SDS011;44257;44.804;10.220;2023-03-01T02:02:42;16.85;;;6.15;;
58468;SDS011;44257;44.804;10.220;2023-03-01T02:05:11;12.55;;;6.38;;
58468;SDS011;44257;44.804;10.220;2023-03-01T02:07:42;12.73;;;6.70;;
58468;SDS011;44257;44.804;10.220;2023-03-01T02:10:09;12.70;;;6.63;;
58468;SDS011;44257;44.804;10.220;2023-03-01T02:12:35;15.05;;;6.93;;
58468;SDS011;44257;44.804;10.220;2023-03-01T02:15:02;13.85;;;6.28;;
58468;SDS011;44257;44.804;10.220;2023-03-01T02:17:28;19.67;;;8.23;;
58468;SDS011;44257;44.804;10.220;2023-03-01T02:22:36;14.30;;;6.78;;
58468;SDS011;44257;44.804;10.220;2023-03-01T02:27:53;17.17;;;6.57;;
58468;SDS011;44257;44.804;10.220;2023-03-01T02:30:30;18.05;;;7.57;;
58468;SDS011;44257;44.804;10.220;2023-03-01T02:32:57;20.60;;;7.72;;
58468;SDS011;44257;44.804;10.220;2023-03-01T02:35:29;18.10;;;7.88;;
58468;SDS011;44257;44.804;10.220;2023-03-01T02:37:58;17.02;;;7.90;;
58468;SDS011;44257;44.804;10.220;2023-03-01T02:40:27;16.92;;;7.97;;
58468;SDS011;44257;44.804;10.220;2023-03-01T02:42:56;15.30;;;7.30;;
58468;SDS011;44257;44.804;10.220;2023-03-01T02:45:24;15.52;;;6.95;;
58468;SDS011;44257;44.804;10.220;2023-03-01T02:47:54;14.80;;;8.20;;
58468;SDS011;44257;44.804;10.220;2023-03-01T02:53:05;16.25;;;8.80;;
58468;SDS011;44257;44.804;10.220;2023-03-01T02:55:37;18.42;;;8.98;;
58468;SDS011;44257;44.804;10.220;2023-03-01T02:58:04;19.60;;;8.15;;
58468;SDS011;44257;44.804;10.220;2023-03-01T03:00:39;20.73;;;8.38;;
58468;SDS011;44257;44.804;10.220;2023-03-01T03:03:14;19.05;;;7.82;;
58468;SDS011;44257;44.804;10.220;2023-03-01T03:05:42;19.75;;;7.22;;
58468;SDS011;44257;44.804;10.220;2023-03-01T03:08:08;12.13;;;6.28;;
58468;SDS011;44257;44.804;10.220;2023-03-01T03:10:37;13.60;;;6.97;;
58468;SDS011;44257;44.804;10.220;2023-03-01T03:13:06;14.77;;;7.85;;
58468;SDS011;44257;44.804;10.220;2023-03-01T03:15:36;18.02;;;8.27;;
58468;SDS011;44257;44.804;10.220;2023-03-01T03:18:04;14.18;;;7.90;;
58468;SDS011;44257;44.804;10.220;2023-03-01T03:20:32;13.48;;;7.70;;
58468;SDS011;44257;44.804;10.220;2023-03-01T03:22:58;15.48;;;8.23;;
58468;SDS011;44257;44.804;10.220;2023-03-01T03:25:25;13.73;;;6.53;;
58468;SDS011;44257;44.804;10.220;2023-03-01T03:27:53;18.63;;;8.05;;
58468;SDS011;44257;44.804;10.220;2023-03-01T03:30:22;13.95;;;6.30;;
58468;SDS011;44257;44.804;10.220;2023-03-01T03:32:52;13.70;;;7.45;;
58468;SDS011;44257;44.804;10.220;2023-03-01T03:35:19;17.15;;;8.27;;
58468;SDS011;44257;44.804;10.220;2023-03-01T03:37:50;16.00;;;8.48;;
58468;SDS011;44257;44.804;10.220;2023-03-01T03:40:33;15.85;;;8.25;;
58468;SDS011;44257;44.804;10.220;2023-03-01T03:43:08;11.77;;;6.13;;
58468;SDS011;44257;44.804;10.220;2023-03-01T03:45:45;14.75;;;6.82;;
58468;SDS011;44257;44.804;10.220;2023-03-01T03:48:11;13.15;;;6.93;;
58468;SDS011;44257;44.804;10.220;2023-03-01T03:50:37;10.52;;;5.55;;
58468;SDS011;44257;44.804;10.220;2023-03-01T03:53:06;13.10;;;7.13;;
58468;SDS011;44257;44.804;10.220;2023-03-01T03:55:35;16.73;;;7.30;;
58468;SDS011;44257;44.804;10.220;2023-03-01T03:58:04;17.70;;;7.28;;
58468;SDS011;44257;44.804;10.220;2023-03-01T04:00:39;16.25;;;8.13;;
58468;SDS011;44257;44.804;10.220;2023-03-01T04:03:07;20.60;;;8.82;;
58468;SDS011;44257;44.804;10.220;2023-03-01T04:05:35;15.45;;;6.68;;
58468;SDS011;44257;44.804;10.220;2023-03-01T04:08:02;16.30;;;7.65;;
58468;SDS011;44257;44.804;10.220;2023-03-01T04:10:29;15.30;;;8.55;;
58468;SDS011;44257;44.804;10.220;2023-03-01T04:12:56;17.30;;;8.20;;
58468;SDS011;44257;44.804;10.220;2023-03-01T04:15:22;18.65;;;8.10;;
58468;SDS011;44257;44.804;10.220;2023-03-01T04:17:50;14.63;;;7.43;;
58468;SDS011;44257;44.804;10.220;2023-03-01T04:20:21;12.77;;;6.95;;
58468;SDS011;44257;44.804;10.220;2023-03-01T04:25:18;17.00;;;7.70;;
58468;SDS011;44257;44.804;10.220;2023-03-01T04:27:44;13.00;;;6.53;;
58468;SDS011;44257;44.804;10.220;2023-03-01T04:30:10;16.35;;;8.00;;
58468;SDS011;44257;44.804;10.220;2023-03-01T04:32:36;14.80;;;8.07;;
58468;SDS011;44257;44.804;10.220;2023-03-01T04:35:02;14.88;;;7.85;;
58468;SDS011;44257;44.804;10.220;2023-03-01T04:37:28;17.42;;;8.55;;
58468;SDS011;44257;44.804;10.220;2023-03-01T04:39:54;17.08;;;7.53;;
58468;SDS011;44257;44.804;10.220;2023-03-01T04:42:20;16.95;;;7.97;;
58468;SDS011;44257;44.804;10.220;2023-03-01T04:44:46;16.85;;;8.27;;
58468;SDS011;44257;44.804;10.220;2023-03-01T04:47:12;18.20;;;8.60;;
58468;SDS011;44257;44.804;10.220;2023-03-01T04:49:38;18.05;;;8.82;;
58468;SDS011;44257;44.804;10.220;2023-03-01T04:52:04;18.88;;;8.63;;
58468;SDS011;44257;44.804;10.220;2023-03-01T04:54:31;18.90;;;9.23;;
58468;SDS011;44257;44.804;10.220;2023-03-01T04:56:57;17.75;;;8.55;;
58468;SDS011;44257;44.804;10.220;2023-03-01T04:59:23;18.33;;;8.23;;
58468;SDS011;44257;44.804;10.220;2023-03-01T05:01:50;18.90;;;8.60;;
58468;SDS011;44257;44.804;10.220;2023-03-01T05:04:16;20.40;;;9.68;;
58468;SDS011;44257;44.804;10.220;2023-03-01T05:06:42;20.85;;;8.93;;
58468;SDS011;44257;44.804;10.220;2023-03-01T05:09:08;17.10;;;9.00;;
58468;SDS011;44257;44.804;10.220;2023-03-01T05:11:34;16.83;;;8.52;;
58468;SDS011;44257;44.804;10.220;2023-03-01T05:14:07;20.50;;;9.32;;
58468;SDS011;44257;44.804;10.220;2023-03-01T05:16:35;16.10;;;9.18;;
58468;SDS011;44257;44.804;10.220;2023-03-01T05:19:02;16.88;;;8.60;;
58468;SDS011;44257;44.804;10.220;2023-03-01T05:21:40;19.17;;;8.27;;
58468;SDS011;44257;44.804;10.220;2023-03-01T05:24:26;16.05;;;7.88;;
58468;SDS011;44257;44.804;10.220;2023-03-01T05:26:52;21.98;;;8.98;;
58468;SDS011;44257;44.804;10.220;2023-03-01T05:29:21;16.58;;;8.40;;
58468;SDS011;44257;44.804;10.220;2023-03-01T05:31:56;13.00;;;7.10;;
58468;SDS011;44257;44.804;10.220;2023-03-01T05:36:54;17.90;;;8.60;;
58468;SDS011;44257;44.804;10.220;2023-03-01T05:39:20;19.00;;;8.35;;
58468;SDS011;44257;44.804;10.220;2023-03-01T05:41:48;15.38;;;8.32;;
58468;SDS011;44257;44.804;10.220;2023-03-01T05:44:17;17.52;;;9.35;;
58468;SDS011;44257;44.804;10.220;2023-03-01T05:46:43;21.08;;;10.82;;
58468;SDS011;44257;44.804;10.220;2023-03-01T05:49:10;15.65;;;7.30;;
58468;SDS011;44257;44.804;10.220;2023-03-01T05:51:38;17.23;;;8.25;;
58468;SDS011;44257;44.804;10.220;2023-03-01T05:54:05;14.82;;;8.20;;
58468;SDS011;44257;44.804;10.220;2023-03-01T05:56:32;19.73;;;9.93;;
58468;SDS011;44257;44.804;10.220;2023-03-01T05:58:59;18.77;;;9.00;;
58468;SDS011;44257;44.804;10.220;2023-03-01T06:01:26;19.45;;;9.57;;
58468;SDS011;44257;44.804;10.220;2023-03-01T06:03:51;20.80;;;9.35;;
58468;SDS011;44257;44.804;10.220;2023-03-01T06:06:17;18.85;;;9.88;;
58468;SDS011;44257;44.804;10.220;2023-03-01T06:08:43;17.58;;;9.95;;
58468;SDS011;44257;44.804;10.220;2023-03-01T06:11:09;16.73;;;9.73;;
58468;SDS011;44257;44.804;10.220;2023-03-01T06:26:44;19.85;;;9.32;;
58468;SDS011;44257;44.804;10.220;2023-03-01T06:29:09;12.85;;;7.13;;
58468;SDS011;44257;44.804;10.220;2023-03-01T06:31:35;15.43;;;8.30;;
58468;SDS011;44257;44.804;10.220;2023-03-01T06:34:01;16.25;;;6.93;;
58468;SDS011;44257;44.804;10.220;2023-03-01T06:36:27;19.67;;;7.97;;
58468;SDS011;44257;44.804;10.220;2023-03-01T06:38:53;16.60;;;8.35;;
58468;SDS011;44257;44.804;10.220;2023-03-01T06:41:19;14.20;;;7.57;;
58468;SDS011;44257;44.804;10.220;2023-03-01T06:43:45;18.75;;;8.32;;
58468;SDS011;44257;44.804;10.220;2023-03-01T06:46:11;19.70;;;8.57;;
58468;SDS011;44257;44.804;10.220;2023-03-01T06:48:37;16.67;;;8.68;;
58468;SDS011;44257;44.804;10.220;2023-03-01T06:51:03;14.32;;;7.20;;
58468;SDS011;44257;44.804;10.220;2023-03-01T06:53:29;17.27;;;8.60;;
58468;SDS011;44257;44.804;10.220;2023-03-01T06:55:55;19.13;;;8.43;;
58468;SDS011;44257;44.804;10.220;2023-03-01T06:58:22;15.80;;;8.13;;
58468;SDS011;44257;44.804;10.220;2023-03-01T07:00:48;15.02;;;7.85;;
58468;SDS011;44257;44.804;10.220;2023-03-01T07:03:14;17.48;;;8.13;;
58468;SDS011;44257;44.804;10.220;2023-03-01T07:05:40;19.55;;;9.43;;
58468;SDS011;44257;44.804;10.220;2023-03-01T07:08:06;16.08;;;7.90;;
58468;SDS011;44257;44.804;10.220;2023-03-01T07:10:32;19.00;;;9.52;;
58468;SDS011;44257;44.804;10.220;2023-03-01T07:12:58;18.35;;;8.43;;
58468;SDS011;44257;44.804;10.220;2023-03-01T07:15:25;19.63;;;7.85;;
58468;SDS011;44257;44.804;10.220;2023-03-01T07:17:52;19.95;;;9.48;;
58468;SDS011;44257;44.804;10.220;2023-03-01T07:20:18;17.13;;;8.35;;
58468;SDS011;44257;44.804;10.220;2023-03-01T07:22:47;14.75;;;8.45;;
58468;SDS011;44257;44.804;10.220;2023-03-01T07:25:13;17.92;;;8.43;;
58468;SDS011;44257;44.804;10.220;2023-03-01T07:27:39;18.55;;;9.07;;
58468;SDS011;44257;44.804;10.220;2023-03-01T07:30:05;15.50;;;7.75;;
58468;SDS011;44257;44.804;10.220;2023-03-01T07:32:32;18.52;;;8.73;;
58468;SDS011;44257;44.804;10.220;2023-03-01T07:34:58;18.77;;;7.80;;
58468;SDS011;44257;44.804;10.220;2023-03-01T07:37:24;20.40;;;8.93;;
58468;SDS011;44257;44.804;10.220;2023-03-01T07:39:50;20.02;;;8.85;;
58468;SDS011;44257;44.804;10.220;2023-03-01T07:42:15;23.23;;;9.18;;
58468;SDS011;44257;44.804;10.220;2023-03-01T07:44:41;20.13;;;9.95;;
58468;SDS011;44257;44.804;10.220;2023-03-01T07:47:07;17.63;;;8.95;;
58468;SDS011;44257;44.804;10.220;2023-03-01T07:49:33;15.90;;;8.18;;
58468;SDS011;44257;44.804;10.220;2023-03-01T07:51:59;19.60;;;9.10;;
58468;SDS011;44257;44.804;10.220;2023-03-01T07:54:25;19.13;;;9.20;;
58468;SDS011;44257;44.804;10.220;2023-03-01T07:56:51;17.92;;;8.02;;
58468;SDS011;44257;44.804;10.220;2023-03-01T07:59:19;17.45;;;8.38;;
58468;SDS011;44257;44.804;10.220;2023-03-01T08:01:45;17.50;;;7.32;;
58468;SDS011;44257;44.804;10.220;2023-03-01T08:04:11;17.00;;;7.53;;
58468;SDS011;44257;44.804;10.220;2023-03-01T08:06:37;15.13;;;7.72;;
58468;SDS011;44257;44.804;10.220;2023-03-01T08:09:03;16.48;;;7.38;;
58468;SDS011;44257;44.804;10.220;2023-03-01T08:11:29;16.45;;;7.82;;
58468;SDS011;44257;44.804;10.220;2023-03-01T08:13:55;14.90;;;6.88;;
58468;SDS011;44257;44.804;10.220;2023-03-01T08:16:22;16.90;;;7.45;;
58468;SDS011;44257;44.804;10.220;2023-03-01T08:18:48;12.57;;;6.70;;
58468;SDS011;44257;44.804;10.220;2023-03-01T08:21:15;14.15;;;7.82;;
58468;SDS011;44257;44.804;10.220;2023-03-01T08:23:42;18.80;;;7.13;;
58468;SDS011;44257;44.804;10.220;2023-03-01T08:26:13;14.40;;;6.88;;
58468;SDS011;44257;44.804;10.220;2023-03-01T08:28:41;18.60;;;7.70;;
58468;SDS011;44257;44.804;10.220;2023-03-01T08:31:18;11.75;;;6.55;;
58468;SDS011;44257;44.804;10.220;2023-03-01T08:33:47;13.23;;;6.75;;
58468;SDS011;44257;44.804;10.220;2023-03-01T08:36:20;17.77;;;6.97;;
58468;SDS011;44257;44.804;10.220;2023-03-01T08:38:52;15.48;;;7.10;;
58468;SDS011;44257;44.804;10.220;2023-03-01T08:41:18;17.85;;;7.93;;
58468;SDS011;44257;44.804;10.220;2023-03-01T08:43:45;15.88;;;6.70;;
58468;SDS011;44257;44.804;10.220;2023-03-01T08:46:11;13.70;;;7.38;;
58468;SDS011;44257;44.804;10.220;2023-03-01T08:48:37;15.02;;;6.65;;
58468;SDS011;44257;44.804;10.220;2023-03-01T08:51:10;15.07;;;6.28;;
58468;SDS011;44257;44.804;10.220;2023-03-01T08:53:38;14.13;;;7.38;;
58468;SDS011;44257;44.804;10.220;2023-03-01T08:56:05;16.45;;;7.38;;
58468;SDS011;44257;44.804;10.220;2023-03-01T08:58:31;14.65;;;7.28;;
58468;SDS011;44257;44.804;10.220;2023-03-01T09:00:57;14.48;;;7.20;;
58468;SDS011;44257;44.804;10.220;2023-03-01T09:03:23;18.45;;;7.32;;
58468;SDS011;44257;44.804;10.220;2023-03-01T09:05:51;11.93;;;5.53;;
58468;SDS011;44257;44.804;10.220;2023-03-01T09:08:17;14.73;;;7.18;;
58468;SDS011;44257;44.804;10.220;2023-03-01T09:10:44;11.55;;;5.82;;
58468;SDS011;44257;44.804;10.220;2023-03-01T09:13:10;17.33;;;6.45;;
58468;SDS011;44257;44.804;10.220;2023-03-01T09:15:36;13.32;;;7.15;;
58468;SDS011;44257;44.804;10.220;2023-03-01T09:18:03;16.27;;;7.95;;
58468;SDS011;44257;44.804;10.220;2023-03-01T09:20:30;14.95;;;7.57;;
58468;SDS011;44257;44.804;10.220;2023-03-01T09:22:56;15.57;;;7.22;;
58468;SDS011;44257;44.804;10.220;2023-03-01T09:25:22;16.42;;;8.43;;
58468;SDS011;44257;44.804;10.220;2023-03-01T09:27:50;13.43;;;6.50;;
58468;SDS011;44257;44.804;10.220;2023-03-01T09:30:17;12.88;;;6.35;;
58468;SDS011;44257;44.804;10.220;2023-03-01T09:32:43;16.30;;;8.23;;
58468;SDS011;44257;44.804;10.220;2023-03-01T09:35:10;14.10;;;7.40;;
58468;SDS011;44257;44.804;10.220;2023-03-01T09:37:36;14.32;;;6.97;;
58468;SDS011;44257;44.804;10.220;2023-03-01T09:40:06;14.68;;;7.07;;
58468;SDS011;44257;44.804;10.220;2023-03-01T09:42:45;12.30;;;6.43;;
58468;SDS011;44257;44.804;10.220;2023-03-01T09:45:23;17.23;;;6.55;;
58468;SDS011;44257;44.804;10.220;2023-03-01T09:48:03;12.90;;;7.93;;
58468;SDS011;44257;44.804;10.220;2023-03-01T09:50:35;13.88;;;7.20;;
58468;SDS011;44257;44.804;10.220;2023-03-01T09:53:08;14.95;;;6.45;;
58468;SDS011;44257;44.804;10.220;2023-03-01T09:55:39;13.13;;;7.22;;
58468;SDS011;44257;44.804;10.220;2023-03-01T10:01:25;12.23;;;6.40;;
58468;SDS011;44257;44.804;10.220;2023-03-01T10:09:36;16.67;;;7.35;;
58468;SDS011;44257;44.804;10.220;2023-03-01T10:12:06;13.15;;;6.95;;
58468;SDS011;44257;44.804;10.220;2023-03-01T10:14:40;15.88;;;6.93;;
58468;SDS011;44257;44.804;10.220;2023-03-01T10:19:51;14.98;;;7.15;;
58468;SDS011;44257;44.804;10.220;2023-03-01T10:22:21;15.30;;;7.35;;
58468;SDS011;44257;44.804;10.220;2023-03-01T10:24:53;15.30;;;7.10;;
58468;SDS011;44257;44.804;10.220;2023-03-01T10:32:19;15.23;;;5.53;;
58468;SDS011;44257;44.804;10.220;2023-03-01T10:34:47;13.82;;;6.25;;
58468;SDS011;44257;44.804;10.220;2023-03-01T10:39:54;13.80;;;6.30;;
58468;SDS011;44257;44.804;10.220;2023-03-01T10:42:31;10.73;;;5.85;;
58468;SDS011;44257;44.804;10.220;2023-03-01T10:45:14;18.00;;;7.03;;
58468;SDS011;44257;44.804;10.220;2023-03-01T10:47:46;13.23;;;6.28;;
58468;SDS011;44257;44.804;10.220;2023-03-01T10:50:19;14.02;;;6.15;;
58468;SDS011;44257;44.804;10.220;2023-03-01T10:52:58;12.05;;;6.28;;
58468;SDS011;44257;44.804;10.220;2023-03-01T10:55:35;12.75;;;6.63;;
58468;SDS011;44257;44.804;10.220;2023-03-01T10:58:36;12.30;;;6.32;;
58468;SDS011;44257;44.804;10.220;2023-03-01T11:01:00;11.40;;;5.47;;
58468;SDS011;44257;44.804;10.220;2023-03-01T11:03:34;15.13;;;7.00;;
58468;SDS011;44257;44.804;10.220;2023-03-01T11:08:48;12.93;;;6.07;;
58468;SDS011;44257;44.804;10.220;2023-03-01T11:14:37;11.60;;;5.55;;
58468;SDS011;44257;44.804;10.220;2023-03-01T11:19:25;10.95;;;5.47;;
58468;SDS011;44257;44.804;10.220;2023-03-01T11:24:53;12.60;;;5.55;;
58468;SDS011;44257;44.804;10.220;2023-03-01T11:27:33;12.25;;;6.20;;
58468;SDS011;44257;44.804;10.220;2023-03-01T11:32:47;12.27;;;5.13;;
58468;SDS011;44257;44.804;10.220;2023-03-01T11:35:32;14.80;;;6.07;;
58468;SDS011;44257;44.804;10.220;2023-03-01T11:40:42;12.48;;;6.40;;
58468;SDS011;44257;44.804;10.220;2023-03-01T12:09:55;12.73;;;6.10;;
58468;SDS011;44257;44.804;10.220;2023-03-01T12:18:11;13.27;;;7.18;;
58468;SDS011;44257;44.804;10.220;2023-03-01T12:26:34;14.23;;;6.68;;
58468;SDS011;44257;44.804;10.220;2023-03-01T12:37:15;13.68;;;6.72;;
58468;SDS011;44257;44.804;10.220;2023-03-01T12:42:36;13.50;;;6.27;;
58468;SDS011;44257;44.804;10.220;2023-03-01T12:50:37;13.38;;;6.43;;
58468;SDS011;44257;44.804;10.220;2023-03-01T12:53:34;14.75;;;6.30;;
58468;SDS011;44257;44.804;10.220;2023-03-01T12:56:04;16.30;;;5.68;;
58468;SDS011;44257;44.804;10.220;2023-03-01T13:01:26;11.20;;;5.95;;
58468;SDS011;44257;44.804;10.220;2023-03-01T13:04:20;13.57;;;7.10;;
58468;SDS011;44257;44.804;10.220;2023-03-01T13:17:50;15.40;;;6.22;;
58468;SDS011;44257;44.804;10.220;2023-03-01T13:20:21;16.73;;;7.13;;
58468;SDS011;44257;44.804;10.220;2023-03-01T13:23:38;13.85;;;6.35;;
58468;SDS011;44257;44.804;10.220;2023-03-01T13:26:03;16.13;;;7.03;;
58468;SDS011;44257;44.804;10.220;2023-03-01T13:31:09;12.70;;;6.32;;
58468;SDS011;44257;44.804;10.220;2023-03-01T13:33:59;13.93;;;6.68;;
58468;SDS011;44257;44.804;10.220;2023-03-01T13:38:57;11.20;;;5.60;;
58468;SDS011;44257;44.804;10.220;2023-03-01T13:46:44;18.23;;;6.88;;
58468;SDS011;44257;44.804;10.220;2023-03-01T13:49:17;13.50;;;6.95;;
58468;SDS011;44257;44.804;10.220;2023-03-01T13:51:46;12.02;;;6.25;;
58468;SDS011;44257;44.804;10.220;2023-03-01T13:54:15;19.48;;;7.93;;
58468;SDS011;44257;44.804;10.220;2023-03-01T13:56:43;14.70;;;6.90;;
58468;SDS011;44257;44.804;10.220;2023-03-01T13:59:13;15.80;;;6.25;;
58468;SDS011;44257;44.804;10.220;2023-03-01T14:01:44;13.95;;;5.78;;
58468;SDS011;44257;44.804;10.220;2023-03-01T14:04:19;18.50;;;7.22;;
58468;SDS011;44257;44.804;10.220;2023-03-01T14:06:48;15.68;;;7.18;;
58468;SDS011;44257;44.804;10.220;2023-03-01T14:09:25;13.43;;;6.82;;
58468;SDS011;44257;44.804;10.220;2023-03-01T14:14:55;15.27;;;6.68;;
58468;SDS011;44257;44.804;10.220;2023-03-01T14:19:57;13.55;;;6.70;;
58468;SDS011;44257;44.804;10.220;2023-03-01T14:22:27;14.35;;;5.68;;
58468;SDS011;44257;44.804;10.220;2023-03-01T14:24:58;12.63;;;6.95;;
58468;SDS011;44257;44.804;10.220;2023-03-01T14:27:44;13.93;;;7.07;;
58468;SDS011;44257;44.804;10.220;2023-03-01T14:30:23;20.55;;;6.78;;
58468;SDS011;44257;44.804;10.220;2023-03-01T14:32:56;11.95;;;5.65;;
58468;SDS011;44257;44.804;10.220;2023-03-01T14:35:27;14.27;;;6.73;;
58468;SDS011;44257;44.804;10.220;2023-03-01T14:37:55;15.68;;;7.50;;
58468;SDS011;44257;44.804;10.220;2023-03-01T14:40:22;16.63;;;6.70;;
58468;SDS011;44257;44.804;10.220;2023-03-01T14:42:58;16.25;;;8.35;;
58468;SDS011;44257;44.804;10.220;2023-03-01T14:45:27;16.45;;;6.30;;
58468;SDS011;44257;44.804;10.220;2023-03-01T14:47:54;11.45;;;7.03;;
58468;SDS011;44257;44.804;10.220;2023-03-01T14:50:27;14.30;;;7.03;;
58468;SDS011;44257;44.804;10.220;2023-03-01T14:52:56;11.93;;;7.15;;
58468;SDS011;44257;44.804;10.220;2023-03-01T14:55:59;12.88;;;6.90;;
58468;SDS011;44257;44.804;10.220;2023-03-01T14:58:19;17.90;;;8.48;;
58468;SDS011;44257;44.804;10.220;2023-03-01T15:00:48;16.35;;;6.85;;
58468;SDS011;44257;44.804;10.220;2023-03-01T15:03:20;15.02;;;7.22;;
58468;SDS011;44257;44.804;10.220;2023-03-01T15:05:51;16.13;;;6.93;;
58468;SDS011;44257;44.804;10.220;2023-03-01T15:08:19;17.88;;;7.13;;
58468;SDS011;44257;44.804;10.220;2023-03-01T15:13:30;15.93;;;6.53;;
58468;SDS011;44257;44.804;10.220;2023-03-01T15:16:40;10.77;;;6.85;;
58468;SDS011;44257;44.804;10.220;2023-03-01T15:18:55;14.35;;;7.03;;
58468;SDS011;44257;44.804;10.220;2023-03-01T15:21:25;12.43;;;7.20;;
58468;SDS011;44257;44.804;10.220;2023-03-01T15:24:02;12.73;;;7.30;;
58468;SDS011;44257;44.804;10.220;2023-03-01T15:26:40;11.75;;;5.90;;
58468;SDS011;44257;44.804;10.220;2023-03-01T15:29:13;12.60;;;6.67;;
58468;SDS011;44257;44.804;10.220;2023-03-01T15:31:53;18.02;;;8.07;;
58468;SDS011;44257;44.804;10.220;2023-03-01T15:34:28;13.05;;;6.10;;
58468;SDS011;44257;44.804;10.220;2023-03-01T15:36:58;11.05;;;6.75;;
58468;SDS011;44257;44.804;10.220;2023-03-01T15:39:36;12.50;;;6.53;;
58468;SDS011;44257;44.804;10.220;2023-03-01T15:42:38;13.15;;;6.70;;
58468;SDS011;44257;44.804;10.220;2023-03-01T15:45:08;12.60;;;6.03;;
58468;SDS011;44257;44.804;10.220;2023-03-01T15:47:55;11.77;;;5.88;;
58468;SDS011;44257;44.804;10.220;2023-03-01T15:50:25;15.15;;;6.75;;
58468;SDS011;44257;44.804;10.220;2023-03-01T15:52:51;14.35;;;6.25;;
58468;SDS011;44257;44.804;10.220;2023-03-01T15:55:21;15.45;;;7.28;;
58468;SDS011;44257;44.804;10.220;2023-03-01T15:57:49;12.95;;;6.40;;
58468;SDS011;44257;44.804;10.220;2023-03-01T16:00:25;12.38;;;5.72;;
58468;SDS011;44257;44.804;10.220;2023-03-01T16:02:51;13.05;;;5.53;;
58468;SDS011;44257;44.804;10.220;2023-03-01T16:05:26;13.90;;;6.07;;
58468;SDS011;44257;44.804;10.220;2023-03-01T16:07:54;13.10;;;6.25;;
58468;SDS011;44257;44.804;10.220;2023-03-01T16:10:20;16.60;;;7.10;;
58468;SDS011;44257;44.804;10.220;2023-03-01T16:12:46;14.40;;;7.05;;
58468;SDS011;44257;44.804;10.220;2023-03-01T16:15:45;12.07;;;5.65;;
58468;SDS011;44257;44.804;10.220;2023-03-01T16:18:05;15.68;;;6.18;;
58468;SDS011;44257;44.804;10.220;2023-03-01T16:20:33;18.60;;;6.43;;
58468;SDS011;44257;44.804;10.220;2023-03-01T16:23:03;17.17;;;7.30;;
58468;SDS011;44257;44.804;10.220;2023-03-01T16:27:58;14.60;;;6.82;;
58468;SDS011;44257;44.804;10.220;2023-03-01T16:30:26;13.07;;;5.82;;
58468;SDS011;44257;44.804;10.220;2023-03-01T16:32:52;16.75;;;8.32;;
58468;SDS011;44257;44.804;10.220;2023-03-01T16:35:20;16.52;;;6.57;;
58468;SDS011;44257;44.804;10.220;2023-03-01T16:37:46;15.80;;;6.72;;
58468;SDS011;44257;44.804;10.220;2023-03-01T16:40:17;16.02;;;7.38;;
58468;SDS011;44257;44.804;10.220;2023-03-01T16:42:46;15.75;;;7.22;;
58468;SDS011;44257;44.804;10.220;2023-03-01T16:45:14;14.57;;;6.70;;
58468;SDS011;44257;44.804;10.220;2023-03-01T16:47:40;13.52;;;6.00;;
58468;SDS011;44257;44.804;10.220;2023-03-01T16:50:05;11.68;;;6.53;;
58468;SDS011;44257;44.804;10.220;2023-03-01T16:52:32;14.27;;;7.15;;
58468;SDS011;44257;44.804;10.220;2023-03-01T16:54:59;16.63;;;7.95;;
58468;SDS011;44257;44.804;10.220;2023-03-01T16:57:25;16.67;;;7.22;;
58468;SDS011;44257;44.804;10.220;2023-03-01T16:59:51;13.27;;;6.20;;
58468;SDS011;44257;44.804;10.220;2023-03-01T17:02:20;15.35;;;7.13;;
58468;SDS011;44257;44.804;10.220;2023-03-01T17:29:36;12.63;;;7.15;;
58468;SDS011;44257;44.804;10.220;2023-03-01T17:48:51;14.82;;;6.97;;
58468;SDS011;44257;44.804;10.220;2023-03-01T17:53:51;16.05;;;7.32;;
58468;SDS011;44257;44.804;10.220;2023-03-01T17:56:17;15.82;;;7.72;;